Time;durP1;ratioP1;P1;durP2;ratioP2;P2;SDS_P1;SDS_P2;PMS_P1;PMS_P2;Temp;Humidity;BMP_temperature;BMP_pressure;BME280_temperature;BME280_humidity;BME280_pressure;Samples;Min_cycle;Max_cycle;Signal;HPM_P1;HPM_P2
2022/12/14 00:01:31;;;;;;;9.20;4.20;;;;;;;-2.91;100.00;97514.00;5015423;28;20057;-74
2022/12/14 00:03:56;;;;;;;6.85;3.45;;;;;;;-2.84;100.00;97513.38;4988353;28;20091;-73
2022/12/14 00:06:29;;;;;;;9.85;4.88;;;;;;;-2.88;100.00;97513.69;5015650;28;20109;-74
2022/12/14 00:08:57;;;;;;;7.80;3.55;;;;;;;-2.95;100.00;97480.84;5016365;28;20029;-73
2022/12/14 00:11:23;;;;;;;10.65;3.80;;;;;;;-2.82;100.00;97501.66;5019613;28;20069;-74
2022/12/14 00:13:54;;;;;;;9.20;4.72;;;;;;;-2.81;100.00;97503.31;5007047;28;20022;-74
2022/12/14 00:16:21;;;;;;;8.02;4.22;;;;;;;-2.85;100.00;97503.78;5021077;28;20018;-74
2022/12/14 00:18:49;;;;;;;8.30;4.07;;;;;;;-2.81;100.00;97505.13;5020673;28;20042;-74
2022/12/14 00:21:15;;;;;;;9.85;4.47;;;;;;;-2.83;100.00;97489.38;5022877;28;20101;-74
2022/12/14 00:23:42;;;;;;;12.75;5.30;;;;;;;-2.78;100.00;97496.88;5006738;28;20057;-73
2022/12/14 00:26:09;;;;;;;9.23;4.35;;;;;;;-2.97;100.00;97477.53;5022460;28;20036;-73
2022/12/14 00:28:35;;;;;;;8.43;4.13;;;;;;;-2.93;100.00;97492.13;5005736;28;20061;-73
2022/12/14 00:31:02;;;;;;;10.68;5.18;;;;;;;-2.84;100.00;97498.31;5024374;28;19997;-74
2022/12/14 00:33:27;;;;;;;8.68;4.35;;;;;;;-2.85;100.00;97486.09;5035493;28;20068;-73
2022/12/14 00:35:52;;;;;;;9.57;4.60;;;;;;;-2.89;100.00;97471.47;5012189;28;20034;-74
2022/12/14 00:38:17;;;;;;;9.48;4.75;;;;;;;-2.75;100.00;97472.75;5012580;28;20040;-73
2022/12/14 00:40:43;;;;;;;11.02;4.85;;;;;;;-2.87;100.00;97454.47;5013242;28;20523;-73
2022/12/14 00:43:08;;;;;;;11.45;4.88;;;;;;;-2.91;100.00;97421.38;5010678;28;20095;-73
2022/12/14 00:45:33;;;;;;;10.93;4.78;;;;;;;-2.78;100.00;97436.00;5034784;28;20499;-73
2022/12/14 00:47:58;;;;;;;11.48;4.72;;;;;;;-2.78;100.00;97428.06;5010117;28;20029;-73
2022/12/14 00:50:24;;;;;;;11.13;5.20;;;;;;;-2.68;100.00;97431.44;5013753;28;20029;-72
2022/12/14 00:52:49;;;;;;;9.45;3.97;;;;;;;-2.51;100.00;97441.19;5033774;28;20110;-73
2022/12/14 00:55:14;;;;;;;11.00;5.03;;;;;;;-2.47;100.00;97447.00;5011303;28;20038;-73
2022/12/14 00:57:39;;;;;;;10.57;4.43;;;;;;;-2.37;100.00;97465.44;5008835;28;20710;-74
2022/12/14 01:00:05;;;;;;;9.48;4.72;;;;;;;-2.50;100.00;97444.66;5000064;28;20030;-73
2022/12/14 01:02:31;;;;;;;10.68;4.68;;;;;;;-2.43;100.00;97458.97;4991858;28;20065;-73
2022/12/14 01:04:56;;;;;;;11.60;4.80;;;;;;;-2.37;100.00;97462.81;5024411;28;20118;-73
2022/12/14 01:07:21;;;;;;;10.73;4.85;;;;;;;-2.56;100.00;97438.19;5014397;28;20024;-73
2022/12/14 01:09:47;;;;;;;9.75;4.72;;;;;;;-2.44;100.00;97459.94;5011689;28;20034;-73
2022/12/14 01:12:12;;;;;;;9.90;5.00;;;;;;;-2.56;100.00;97440.81;5011625;28;20053;-74
2022/12/14 01:14:37;;;;;;;10.90;5.22;;;;;;;-2.58;100.00;97444.59;5012225;28;20081;-73
2022/12/14 01:17:03;;;;;;;11.10;5.13;;;;;;;-2.55;100.00;97439.00;5012192;28;20018;-73
2022/12/14 01:19:28;;;;;;;11.32;5.55;;;;;;;-2.43;100.00;97449.19;4994142;28;20592;-73
2022/12/14 01:21:54;;;;;;;9.25;4.63;;;;;;;-2.49;100.00;97457.75;5002996;28;20025;-73
2022/12/14 01:24:19;;;;;;;12.70;5.65;;;;;;;-2.59;100.00;97438.50;4994200;28;20096;-73
2022/12/14 01:26:44;;;;;;;9.60;4.78;;;;;;;-2.29;100.00;97466.31;4999022;28;20113;-73
2022/12/14 01:29:10;;;;;;;10.85;5.03;;;;;;;-2.38;100.00;97446.09;5012648;28;20029;-73
2022/12/14 01:31:37;;;;;;;12.32;5.00;;;;;;;-2.30;100.00;97462.03;4992042;28;20029;-73
2022/12/14 01:34:03;;;;;;;9.57;5.35;;;;;;;-2.27;100.00;97463.53;4993804;28;20018;-73
2022/12/14 01:36:31;;;;;;;12.32;5.28;;;;;;;-2.33;100.00;97466.78;4991312;28;20075;-73
2022/12/14 01:39:02;;;;;;;9.23;4.68;;;;;;;-2.37;100.00;97471.56;4996152;28;20029;-73
2022/12/14 01:41:34;;;;;;;9.02;5.10;;;;;;;-2.52;100.00;97434.22;4989431;28;20045;-73
2022/12/14 01:44:19;;;;;;;10.63;5.32;;;;;;;-2.50;100.00;97450.78;4985664;28;20017;-73
2022/12/14 01:46:50;;;;;;;11.60;4.95;;;;;;;-2.52;100.00;97442.16;5010470;28;20030;-73
2022/12/14 01:49:33;;;;;;;8.73;4.93;;;;;;;-2.42;100.00;97457.97;5000550;28;20068;-73
2022/12/14 01:52:03;;;;;;;12.27;5.88;;;;;;;-2.50;100.00;97445.50;5016414;28;20041;-73
2022/12/14 01:54:32;;;;;;;11.55;5.40;;;;;;;-2.50;100.00;97445.50;4993686;28;20488;-72
2022/12/14 01:56:58;;;;;;;7.78;4.13;;;;;;;-2.36;100.00;97436.13;4982370;28;20621;-73
2022/12/14 01:59:30;;;;;;;13.93;5.63;;;;;;;-2.45;100.00;97429.97;5010677;28;20037;-73
2022/12/14 02:01:57;;;;;;;13.60;5.90;;;;;;;-2.61;100.00;97421.91;5013309;28;20100;-73
2022/12/14 02:04:23;;;;;;;12.48;5.20;;;;;;;-2.61;100.00;97415.81;4995709;28;20030;-73
2022/12/14 02:06:50;;;;;;;11.93;5.30;;;;;;;-2.35;100.00;97437.00;5011765;28;20053;-73
2022/12/14 02:09:25;;;;;;;12.90;5.80;;;;;;;-2.56;100.00;97393.16;5008363;28;20113;-73
2022/12/14 02:12:03;;;;;;;13.88;6.00;;;;;;;-2.48;100.00;97427.63;4992669;28;20036;-74
2022/12/14 02:14:29;;;;;;;9.25;5.22;;;;;;;-2.63;100.00;97429.19;5009437;28;20579;-73
2022/12/14 02:16:56;;;;;;;13.18;6.28;;;;;;;-2.71;100.00;97416.72;5010336;28;20077;-73
2022/12/14 02:19:22;;;;;;;10.77;5.13;;;;;;;-2.63;100.00;97428.34;5010578;28;20395;-73
2022/12/14 02:22:03;;;;;;;12.05;6.03;;;;;;;-2.64;100.00;97435.47;5021048;28;20021;-72
2022/12/14 02:24:52;;;;;;;11.35;5.85;;;;;;;-2.80;100.00;97417.66;4991279;28;20739;-74
2022/12/14 02:27:42;;;;;;;12.10;5.55;;;;;;;-2.80;100.00;97406.19;5008036;28;20030;-73
2022/12/14 02:30:17;;;;;;;13.68;5.82;;;;;;;-2.78;100.00;97404.25;5008632;28;20087;-73
2022/12/14 02:32:52;;;;;;;11.13;5.68;;;;;;;-2.83;100.00;97380.06;5013837;28;20037;-73
2022/12/14 02:35:40;;;;;;;14.48;6.18;;;;;;;-2.75;100.00;97404.78;4996620;28;20100;-73
2022/12/14 02:38:34;;;;;;;12.40;5.70;;;;;;;-2.81;100.00;97378.91;5009019;28;20082;-74
2022/12/14 02:41:50;;;;;;;12.75;6.20;;;;;;;-2.74;100.00;97395.03;5001166;28;20018;-73
2022/12/14 02:44:24;;;;;;;11.25;6.18;;;;;;;-2.68;100.00;97389.94;4950017;28;20082;-74
2022/12/14 02:47:08;;;;;;;14.60;6.30;;;;;;;-2.62;100.00;97387.66;4961278;28;20130;-73
2022/12/14 02:49:50;;;;;;;16.25;6.43;;;;;;;-2.64;100.00;97393.13;5003631;28;20049;-73
2022/12/14 02:52:46;;;;;;;16.35;6.55;;;;;;;-2.66;100.00;97387.13;5010096;28;20041;-73
2022/12/14 02:55:19;;;;;;;13.65;6.50;;;;;;;-2.57;100.00;97401.25;4991998;28;20029;-74
2022/12/14 02:57:59;;;;;;;16.05;7.10;;;;;;;-2.57;100.00;97401.25;5008611;28;20029;-73
2022/12/14 03:00:27;;;;;;;12.90;6.28;;;;;;;-2.64;100.00;97379.88;5025023;28;20475;-73
2022/12/14 03:02:53;;;;;;;17.63;6.97;;;;;;;-2.57;100.00;97388.00;5001737;28;20065;-73
2022/12/14 03:05:18;;;;;;;15.85;6.88;;;;;;;-2.70;100.00;97380.47;4988651;28;20280;-73
2022/12/14 03:07:54;;;;;;;15.32;7.32;;;;;;;-2.68;100.00;97394.41;5023788;28;20514;-73
2022/12/14 03:10:38;;;;;;;13.70;6.70;;;;;;;-2.71;100.00;97376.19;5021646;28;20033;-73
2022/12/14 03:13:17;;;;;;;14.57;6.57;;;;;;;-2.75;100.00;97370.38;5008716;28;20041;-73
2022/12/14 03:15:45;;;;;;;13.88;6.78;;;;;;;-2.78;100.00;97368.00;5011501;28;20087;-73
2022/12/14 03:18:16;;;;;;;14.68;7.13;;;;;;;-2.82;100.00;97361.38;4996696;28;20033;-73
2022/12/14 03:20:45;;;;;;;16.77;6.63;;;;;;;-2.71;100.00;97370.88;5009835;28;20018;-73
2022/12/14 03:23:21;;;;;;;18.08;7.50;;;;;;;-2.69;100.00;97368.91;4993931;28;20060;-73
2022/12/14 03:26:04;;;;;;;15.70;6.47;;;;;;;-2.61;100.00;97350.44;5013942;28;20601;-73
2022/12/14 03:28:44;;;;;;;13.45;6.63;;;;;;;-2.56;100.00;97356.09;4995859;28;20025;-72
2022/12/14 03:31:23;;;;;;;15.85;6.95;;;;;;;-2.52;100.00;97335.41;5011317;28;20507;-73
2022/12/14 03:33:52;;;;;;;14.68;6.65;;;;;;;-2.54;100.00;97332.94;5006917;28;20458;-73
2022/12/14 03:36:30;;;;;;;13.73;6.50;;;;;;;-2.70;100.00;97322.25;4996721;28;20022;-72
2022/12/14 03:38:59;;;;;;;18.08;6.90;;;;;;;-2.71;100.00;97324.06;5013978;28;20120;-73
2022/12/14 03:41:42;;;;;;;17.40;7.33;;;;;;;-2.72;100.00;97313.66;5009605;28;20514;-73
2022/12/14 03:44:37;;;;;;;14.82;7.28;;;;;;;-2.64;100.00;97319.00;5013363;28;20507;-73
2022/12/14 03:47:25;;;;;;;14.52;6.78;;;;;;;-2.48;100.00;97332.31;4994242;28;20030;-73
2022/12/14 03:50:12;;;;;;;17.48;7.53;;;;;;;-2.56;100.00;97318.22;5013554;28;20083;-73
2022/12/14 03:52:52;;;;;;;15.57;7.07;;;;;;;-2.52;100.00;97324.84;4999559;28;20033;-73
2022/12/14 03:55:32;;;;;;;16.63;7.43;;;;;;;-2.57;100.00;97327.13;5013647;28;20388;-73
2022/12/14 03:58:22;;;;;;;15.32;7.05;;;;;;;-2.55;100.00;97320.69;4977300;28;20033;-74
2022/12/14 04:01:00;;;;;;;20.42;7.90;;;;;;;-2.54;100.00;97322.34;4982463;28;20112;-73
2022/12/14 04:03:39;;;;;;;14.15;6.10;;;;;;;-2.47;100.00;97325.19;5011896;28;20451;-73
2022/12/14 04:06:13;;;;;;;14.65;6.90;;;;;;;-2.55;100.00;97296.84;5001540;28;20123;-73
2022/12/14 04:09:16;;;;;;;16.77;6.90;;;;;;;-2.51;100.00;97292.91;4997613;28;20438;-73
2022/12/14 04:20:23;;;;;;;15.77;7.28;;;;;;;-2.67;100.00;97247.84;5018133;28;20156;-73
2022/12/14 04:22:56;;;;;;;13.90;7.00;;;;;;;-2.52;100.00;97266.56;4991814;28;20129;-73
2022/12/14 04:31:17;;;;;;;13.98;6.65;;;;;;;-2.62;100.00;97253.47;5010672;28;20064;-73
2022/12/14 04:33:48;;;;;;;13.73;7.15;;;;;;;-2.56;100.00;97250.19;4992197;28;20037;-73
2022/12/14 04:36:21;;;;;;;15.68;7.72;;;;;;;-2.44;100.00;97253.38;4997221;28;20030;-73
2022/12/14 04:38:54;;;;;;;17.77;7.80;;;;;;;-2.51;100.00;97241.78;5012761;28;20811;-73
2022/12/14 04:41:23;;;;;;;15.93;7.85;;;;;;;-2.45;100.00;97252.53;5012719;28;20021;-74
2022/12/14 04:43:52;;;;;;;18.00;8.38;;;;;;;-2.43;100.00;97252.41;5012871;28;20026;-73
2022/12/14 04:46:23;;;;;;;17.42;6.35;;;;;;;-2.57;100.00;97235.28;5021157;28;20109;-73
2022/12/14 04:48:51;;;;;;;18.58;8.00;;;;;;;-2.48;100.00;97252.88;5012143;28;20022;-73
2022/12/14 04:51:24;;;;;;;15.38;7.80;;;;;;;-2.47;100.00;97245.75;4992058;28;20036;-73
2022/12/14 04:53:55;;;;;;;16.92;7.47;;;;;;;-2.44;100.00;97242.78;5008463;28;20104;-73
2022/12/14 04:56:35;;;;;;;15.40;7.70;;;;;;;-2.47;100.00;97243.91;4988795;28;20444;-73
2022/12/14 04:59:01;;;;;;;15.27;7.25;;;;;;;-2.51;100.00;97233.84;4993006;28;20121;-74
2022/12/14 05:01:38;;;;;;;17.58;7.57;;;;;;;-2.49;100.00;97235.34;4994749;28;20113;-72
2022/12/14 05:04:28;;;;;;;16.40;7.80;;;;;;;-2.32;100.00;97253.91;5010371;28;20484;-72
2022/12/14 05:07:17;;;;;;;15.45;7.85;;;;;;;-2.27;100.00;97255.09;5009194;28;20018;-73
2022/12/14 05:10:12;;;;;;;16.80;7.70;;;;;;;-2.29;100.00;97264.19;5010623;28;21384;-73
2022/12/14 05:12:50;;;;;;;16.48;7.60;;;;;;;-2.27;100.00;97259.56;4996403;28;20376;-73
2022/12/14 05:15:27;;;;;;;18.38;8.48;;;;;;;-2.23;100.00;97263.53;4994363;28;20034;-72
2022/12/14 05:17:53;;;;;;;16.13;7.78;;;;;;;-2.30;100.00;97236.06;5009227;28;20148;-74
2022/12/14 05:20:23;;;;;;;15.15;7.50;;;;;;;-2.19;100.00;97240.22;5020887;28;20101;-73
2022/12/14 05:22:49;;;;;;;16.20;8.05;;;;;;;-2.13;100.00;97237.75;4994740;28;20037;-73
2022/12/14 05:25:15;;;;;;;16.20;8.63;;;;;;;-2.08;100.00;97222.19;5011869;28;20029;-70
2022/12/14 05:27:41;;;;;;;19.30;8.93;;;;;;;-2.01;100.00;97223.19;5003574;28;20474;-76
2022/12/14 05:30:08;;;;;;;18.30;8.88;;;;;;;-1.96;100.00;97225.38;5003161;28;20022;-77
2022/12/14 05:32:33;;;;;;;15.68;8.20;;;;;;;-1.99;100.00;97213.28;4993338;28;20033;-76
2022/12/14 05:35:00;;;;;;;16.55;8.68;;;;;;;-1.91;100.00;97220.41;4988363;28;20022;-77
2022/12/14 05:37:25;;;;;;;20.42;8.57;;;;;;;-2.00;100.00;97208.13;5010096;28;20044;-74
2022/12/14 05:39:51;;;;;;;16.30;8.07;;;;;;;-2.03;100.00;97209.28;4982942;28;20030;-75
2022/12/14 05:42:16;;;;;;;20.75;8.57;;;;;;;-2.02;100.00;97200.34;5003265;28;20084;-77
2022/12/14 05:44:42;;;;;;;18.55;8.40;;;;;;;-1.99;100.00;97213.28;4994660;28;20041;-76
2022/12/14 05:47:07;;;;;;;17.58;8.57;;;;;;;-1.96;100.00;97200.69;4993222;28;20022;-76
2022/12/14 05:49:32;;;;;;;17.23;8.80;;;;;;;-2.00;100.00;97187.75;4990997;28;20045;-77
2022/12/14 05:51:57;;;;;;;19.13;8.60;;;;;;;-2.05;100.00;97184.75;4992794;28;20025;-77
2022/12/14 05:54:23;;;;;;;18.00;8.73;;;;;;;-2.00;100.00;97187.75;5013645;28;20030;-76
2022/12/14 05:56:48;;;;;;;16.42;8.10;;;;;;;-2.11;100.00;97172.19;4995317;28;20028;-76
2022/12/14 05:59:16;;;;;;;17.70;8.80;;;;;;;-2.00;100.00;97197.53;5006632;28;20037;-76
2022/12/14 06:01:42;;;;;;;21.98;9.65;;;;;;;-2.02;100.00;97188.91;5010366;28;20053;-77
2022/12/14 06:04:10;;;;;;;17.88;8.77;;;;;;;-2.18;100.00;97167.69;5002020;28;20030;-77
2022/12/14 06:06:35;;;;;;;16.65;8.68;;;;;;;-1.80;100.00;97193.56;4993999;28;20028;-77
2022/12/14 06:09:05;;;;;;;27.75;9.90;;;;;;;-1.81;100.00;97178.66;4988779;28;20018;-76
2022/12/14 06:11:30;;;;;;;17.08;8.25;;;;;;;-2.03;100.00;97150.97;4991659;28;20018;-77
2022/12/14 06:13:55;;;;;;;17.67;9.20;;;;;;;-2.10;100.00;97154.44;5013242;28;20021;-77
2022/12/14 06:16:23;;;;;;;21.35;8.95;;;;;;;-2.11;100.00;97174.81;5012198;28;20419;-74
2022/12/14 06:18:53;;;;;;;16.70;8.45;;;;;;;-2.13;100.00;97170.69;5007692;28;20026;-76
2022/12/14 06:21:28;;;;;;;18.52;8.68;;;;;;;-2.03;100.00;97193.38;4999637;28;20026;-72
2022/12/14 06:23:54;;;;;;;20.40;9.27;;;;;;;-2.00;100.00;97190.41;5011750;28;20033;-72
2022/12/14 06:26:20;;;;;;;18.75;8.95;;;;;;;-2.05;100.00;97190.06;5012733;28;20026;-72
2022/12/14 06:28:45;;;;;;;26.25;9.70;;;;;;;-2.21;100.00;97167.03;5013484;28;20535;-78
2022/12/14 06:31:21;;;;;;;20.50;10.48;;;;;;;-2.07;100.00;97188.56;5000115;28;20030;-79
2022/12/14 06:33:46;;;;;;;19.20;9.23;;;;;;;-2.07;100.00;97173.53;4997726;28;20033;-72
2022/12/14 06:36:25;;;;;;;20.15;9.85;;;;;;;-2.07;100.00;97180.63;4998424;28;20026;-73
2022/12/14 06:38:52;;;;;;;19.13;10.15;;;;;;;-2.20;100.00;97149.31;4998241;28;20091;-73
2022/12/14 06:41:18;;;;;;;23.80;10.45;;;;;;;-2.09;100.00;97156.13;5013633;28;20092;-73
2022/12/14 06:43:43;;;;;;;21.85;9.73;;;;;;;-2.05;100.00;97152.97;5012603;28;20531;-75
2022/12/14 06:46:11;;;;;;;24.88;10.45;;;;;;;-2.01;100.00;97156.94;5015493;28;20044;-74
2022/12/14 06:48:54;;;;;;;24.02;10.27;;;;;;;-2.03;100.00;97156.28;5025732;28;20021;-80
2022/12/14 06:51:21;;;;;;;21.23;9.57;;;;;;;-1.98;100.00;97156.63;4989577;28;20030;-75
2022/12/14 06:53:50;;;;;;;21.85;11.90;;;;;;;-2.03;100.00;97152.81;5006419;28;20530;-78
2022/12/14 06:56:16;;;;;;;21.95;10.70;;;;;;;-2.02;100.00;97141.19;4988124;28;20038;-75
2022/12/14 06:58:43;;;;;;;20.90;10.60;;;;;;;-1.92;100.00;97141.88;4980220;28;20021;-77
2022/12/14 07:01:14;;;;;;;22.95;10.23;;;;;;;-1.99;100.00;97135.59;4998052;28;20484;-75
2022/12/14 07:03:42;;;;;;;19.60;9.55;;;;;;;-1.96;100.00;97150.34;4996835;28;20033;-76
2022/12/14 07:06:08;;;;;;;25.38;10.60;;;;;;;-2.20;100.00;97101.66;4994537;28;20113;-76
2022/12/14 07:08:37;;;;;;;25.88;10.48;;;;;;;-1.91;100.00;97132.94;5011904;28;20044;-75
2022/12/14 07:11:04;;;;;;;16.97;8.30;;;;;;;-1.91;100.00;97129.44;4997422;28;20022;-78
2022/12/14 07:13:29;;;;;;;20.73;10.90;;;;;;;-1.94;100.00;97124.47;5020616;28;20117;-78
2022/12/14 07:15:57;;;;;;;26.48;10.82;;;;;;;-1.93;100.00;97121.69;5038518;28;20049;-74
2022/12/14 07:18:23;;;;;;;22.35;11.27;;;;;;;-2.00;100.00;97124.16;5016312;28;21400;-77
2022/12/14 07:21:01;;;;;;;21.58;10.13;;;;;;;-2.14;100.00;97103.63;5032155;23;20056;-56
2022/12/14 07:23:29;;;;;;;22.98;10.70;;;;;;;-2.05;100.00;97097.31;5015239;28;20034;-56
2022/12/14 07:26:06;;;;;;;25.65;11.50;;;;;;;-1.99;100.00;97083.41;5007553;28;20037;-56
2022/12/14 07:28:32;;;;;;;23.27;10.65;;;;;;;-2.00;100.00;97087.03;5021875;28;20489;-56
2022/12/14 07:30:59;;;;;;;23.77;10.45;;;;;;;-1.95;100.00;97094.50;5015676;28;20045;-58
2022/12/14 07:33:25;;;;;;;20.83;10.60;;;;;;;-1.86;100.00;97090.88;5012208;28;20620;-59
2022/12/14 07:35:51;;;;;;;22.40;10.65;;;;;;;-1.88;100.00;97092.03;5014308;28;20052;-59
2022/12/14 07:38:17;;;;;;;29.73;12.57;;;;;;;-1.92;100.00;97082.75;5011228;28;20044;-56
2022/12/14 07:40:44;;;;;;;26.60;10.85;;;;;;;-1.99;100.00;97082.59;5009024;28;20447;-56
2022/12/14 07:43:10;;;;;;;21.98;11.43;;;;;;;-1.92;100.00;97096.00;5021823;28;20045;-59
2022/12/14 07:45:35;;;;;;;23.20;11.52;;;;;;;-1.86;100.00;97097.97;5015224;28;20040;-59
2022/12/14 07:48:01;;;;;;;22.20;10.65;;;;;;;-1.90;100.00;97088.72;5012649;28;20370;-59
2022/12/14 07:50:28;;;;;;;22.10;10.73;;;;;;;-1.86;100.00;97082.06;5015906;28;20104;-56
2022/12/14 07:52:53;;;;;;;23.92;11.57;;;;;;;-1.88;100.00;97090.19;5014755;28;20021;-55
2022/12/14 07:55:19;;;;;;;25.83;11.68;;;;;;;-1.86;100.00;97092.66;5002577;28;20067;-55
2022/12/14 07:57:44;;;;;;;24.42;11.38;;;;;;;-1.89;100.00;97093.81;5021718;28;20041;-58
2022/12/14 08:00:10;;;;;;;26.48;11.43;;;;;;;-1.89;100.00;97095.66;5013953;28;20500;-56
2022/12/14 08:02:35;;;;;;;24.92;11.80;;;;;;;-1.99;100.00;97070.16;5020801;28;20069;-55
2022/12/14 08:05:01;;;;;;;22.02;11.32;;;;;;;-1.92;100.00;97078.25;5011312;28;20029;-56
2022/12/14 08:07:28;;;;;;;27.05;11.75;;;;;;;-1.89;100.00;97072.63;5012769;28;20084;-56
2022/12/14 08:09:54;;;;;;;21.65;11.88;;;;;;;-1.90;100.00;97067.50;5006357;28;20033;-56
2022/12/14 08:12:19;;;;;;;26.20;11.40;;;;;;;-1.75;100.00;97080.91;5005824;28;20400;-55
2022/12/14 08:14:45;;;;;;;28.40;13.18;;;;;;;-1.77;100.00;97086.38;5015499;28;20064;-55
2022/12/14 08:17:10;;;;;;;26.92;12.23;;;;;;;-1.67;100.00;97092.31;5031611;28;20037;-55
2022/12/14 08:19:35;;;;;;;23.75;11.75;;;;;;;-1.58;100.00;97101.91;5007158;28;20615;-54
2022/12/14 08:22:02;;;;;;;27.85;12.60;;;;;;;-1.53;100.00;97105.88;5014232;28;20464;-54
2022/12/14 08:24:27;;;;;;;27.65;11.15;;;;;;;-1.45;100.00;97100.56;5014983;28;20053;-53
2022/12/14 08:26:53;;;;;;;30.10;13.55;;;;;;;-1.47;100.00;97089.28;5013119;28;20029;-53
2022/12/14 08:29:18;;;;;;;26.25;12.52;;;;;;;-1.37;100.00;97081.97;5015760;28;20068;-53
2022/12/14 08:31:44;;;;;;;25.20;12.07;;;;;;;-1.35;100.00;97090.59;5015251;28;20034;-54
2022/12/14 08:34:09;;;;;;;24.70;12.45;;;;;;;-1.27;100.00;97085.25;5015909;28;20365;-54
2022/12/14 08:36:36;;;;;;;24.45;12.07;;;;;;;-1.23;100.00;97085.72;5028475;28;20025;-53
2022/12/14 08:39:04;;;;;;;25.52;11.88;;;;;;;-1.18;100.00;97081.59;5020860;28;20400;-54
2022/12/14 08:41:30;;;;;;;25.27;12.88;;;;;;;-1.20;100.00;97094.19;5004006;28;20108;-55
2022/12/14 08:43:58;;;;;;;24.63;12.43;;;;;;;-1.20;100.00;97096.84;5019265;28;20029;-59
2022/12/14 08:46:26;;;;;;;27.08;13.15;;;;;;;-1.26;100.00;97084.25;5014474;28;20412;-58
2022/12/14 08:48:53;;;;;;;26.40;12.45;;;;;;;-1.18;100.00;97094.84;5012746;28;20033;-55
2022/12/14 08:51:20;;;;;;;28.25;11.98;;;;;;;-1.34;100.00;97071.88;5019988;28;20033;-53
2022/12/14 08:53:48;;;;;;;28.40;11.85;;;;;;;-1.29;100.00;97089.91;5018819;28;20052;-54
2022/12/14 08:56:18;;;;;;;26.98;12.68;;;;;;;-1.36;100.00;97071.19;5031388;28;20741;-55
2022/12/14 08:58:44;;;;;;;28.10;13.20;;;;;;;-1.25;100.00;97077.97;5028653;28;20205;-60
2022/12/14 09:01:13;;;;;;;23.45;12.20;;;;;;;-1.19;100.00;97069.31;5014748;28;20154;-54
2022/12/14 09:03:54;;;;;;;32.15;16.20;;;;;;;-1.07;100.00;97066.25;5012280;28;20120;-59
2022/12/14 09:06:22;;;;;;;27.80;13.70;;;;;;;-0.96;100.00;97071.22;5011305;28;20029;-55
2022/12/14 09:08:48;;;;;;;27.58;14.20;;;;;;;-0.88;100.00;97065.84;5010788;28;20143;-61
2022/12/14 09:11:16;;;;;;;30.65;14.25;;;;;;;-0.88;100.00;97076.47;5032161;28;20025;-54
2022/12/14 09:13:42;;;;;;;30.23;13.85;;;;;;;-0.92;100.00;97077.81;5033603;28;20037;-56
2022/12/14 09:16:19;;;;;;;29.48;14.05;;;;;;;-0.94;100.00;97069.22;5012076;28;20149;-54
2022/12/14 09:18:46;;;;;;;31.17;14.25;;;;;;;-1.08;100.00;97064.63;5015629;28;20025;-55
2022/12/14 09:21:13;;;;;;;32.13;14.23;;;;;;;-1.07;100.00;97071.56;5018830;28;20029;-55
2022/12/14 09:23:39;;;;;;;27.95;12.98;;;;;;;-1.08;100.00;97072.56;5015611;28;20025;-59
2022/12/14 09:26:05;;;;;;;29.55;13.38;;;;;;;-1.02;100.00;97054.16;5018905;28;20021;-59
2022/12/14 09:28:33;;;;;;;30.35;15.27;;;;;;;-0.98;100.00;97063.41;5013268;28;20115;-59
2022/12/14 09:31:01;;;;;;;31.83;13.55;;;;;;;-0.79;100.00;97054.16;5025293;28;20029;-59
2022/12/14 09:33:35;;;;;;;25.88;13.00;;;;;;;-0.83;100.00;97057.38;5007118;28;20054;-59
2022/12/14 09:36:07;;;;;;;31.55;13.73;;;;;;;-0.69;100.00;97057.44;5010065;28;20025;-59
2022/12/14 09:38:35;;;;;;;28.77;12.98;;;;;;;-0.79;100.00;97048.03;5035084;28;20090;-54
2022/12/14 09:41:26;;;;;;;27.65;13.52;;;;;;;-0.94;100.00;97066.56;5017634;28;20112;-59
2022/12/14 09:44:25;;;;;;;32.05;14.52;;;;;;;-0.82;100.00;97070.44;5006011;28;20095;-54
2022/12/14 09:47:17;;;;;;;30.98;13.73;;;;;;;-0.83;100.00;97062.69;5012044;28;20075;-54
2022/12/14 09:50:04;;;;;;;30.38;14.25;;;;;;;-0.74;100.00;97066.94;5010369;28;20495;-54
2022/12/14 09:52:50;;;;;;;31.90;13.40;;;;;;;-0.71;100.00;97062.13;5020383;28;20127;-54
2022/12/14 09:55:30;;;;;;;32.22;13.90;;;;;;;-0.83;100.00;97052.06;5007796;28;20427;-54
2022/12/14 09:58:04;;;;;;;29.02;14.10;;;;;;;-0.81;100.00;97058.00;5010406;28;20029;-55
2022/12/14 10:01:02;;;;;;;28.77;15.20;;;;;;;-0.74;100.00;97057.13;5004261;28;20029;-55
2022/12/14 10:04:05;;;;;;;28.30;13.60;;;;;;;-0.46;100.00;97053.97;4991435;28;20053;-55
2022/12/14 10:06:46;;;;;;;26.95;13.13;;;;;;;-0.69;100.00;97060.09;5008015;28;20044;-55
2022/12/14 10:09:40;;;;;;;27.13;13.20;;;;;;;-0.70;100.00;97057.63;4999650;28;20033;-55
2022/12/14 10:12:24;;;;;;;25.08;13.30;;;;;;;-0.78;100.00;97052.38;4999454;28;20065;-55
2022/12/14 10:15:24;;;;;;;31.55;15.18;;;;;;;-0.98;100.00;97060.75;5011012;28;20033;-55
2022/12/14 10:17:59;;;;;;;27.77;13.23;;;;;;;-0.90;100.00;97054.56;5008594;28;20029;-54
2022/12/14 10:20:41;;;;;;;33.90;14.35;;;;;;;-0.82;100.00;97062.50;5011524;28;20029;-55
2022/12/14 10:23:12;;;;;;;32.60;15.75;;;;;;;-0.75;100.00;97063.44;5016342;28;20061;-54
2022/12/14 10:25:39;;;;;;;34.60;15.50;;;;;;;-0.71;100.00;97048.84;5015708;28;20060;-54
2022/12/14 10:28:36;;;;;;;34.95;16.15;;;;;;;-0.63;100.00;97044.44;5018709;28;20504;-54
2022/12/14 10:31:08;;;;;;;31.23;14.63;;;;;;;-0.38;100.00;97024.69;5021993;28;20029;-54
2022/12/14 10:33:37;;;;;;;30.75;14.13;;;;;;;-0.13;100.00;97027.13;5013187;28;20025;-54
2022/12/14 10:36:13;;;;;;;34.45;14.93;;;;;;;-0.14;100.00;97021.00;5017037;28;20064;-60
2022/12/14 10:38:45;;;;;;;28.02;14.85;;;;;;;-0.08;100.00;97020.28;5022419;28;20029;-54
2022/12/14 10:41:22;;;;;;;28.55;14.27;;;;;;;0.26;100.00;97024.25;5027326;28;20496;-54
2022/12/14 10:44:19;;;;;;;28.20;14.10;;;;;;;0.40;100.00;97019.97;5018288;28;20037;-54
2022/12/14 10:47:03;;;;;;;28.10;13.90;;;;;;;0.46;100.00;97019.25;5013409;28;20103;-56
2022/12/14 10:49:40;;;;;;;31.50;14.27;;;;;;;0.58;100.00;97024.94;5008692;28;20041;-54
2022/12/14 10:52:19;;;;;;;32.08;15.10;;;;;;;0.60;100.00;97022.91;5009016;28;20030;-55
2022/12/14 10:54:59;;;;;;;29.02;14.18;;;;;;;0.60;100.00;97020.25;5016602;28;20065;-55
2022/12/14 10:57:26;;;;;;;31.55;15.25;;;;;;;0.72;100.00;97013.44;5010643;28;20087;-55
2022/12/14 10:59:53;;;;;;;27.48;14.40;;;;;;;0.97;100.00;97019.31;5020040;28;20516;-55
2022/12/14 11:02:24;;;;;;;26.25;13.93;;;;;;;1.02;100.00;97024.03;5007335;28;20032;-56
2022/12/14 11:05:05;;;;;;;29.20;14.70;;;;;;;1.03;100.00;97023.88;5025582;28;20065;-55
2022/12/14 11:07:33;;;;;;;31.20;14.40;;;;;;;0.88;100.00;97034.53;5007983;28;20148;-55
2022/12/14 11:10:14;;;;;;;28.08;14.82;;;;;;;0.83;100.00;97025.47;5015429;28;20022;-62
2022/12/14 11:12:40;;;;;;;27.95;15.10;;;;;;;0.95;100.00;97018.66;5011819;28;20033;-63
2022/12/14 11:15:22;;;;;;;28.50;14.98;;;;;;;1.23;100.00;97005.47;5014589;28;20064;-62
2022/12/14 11:18:21;;;;;;;31.75;15.02;;;;;;;1.38;100.00;97009.91;5015229;28;20481;-62
2022/12/14 11:20:55;;;;;;;27.75;14.40;;;;;;;1.54;100.00;97005.13;5012563;28;20113;-61
2022/12/14 11:23:38;;;;;;;33.55;14.93;;;;;;;1.61;100.00;96991.06;5018083;28;20140;-61
2022/12/14 11:26:24;;;;;;;28.85;14.85;;;;;;;1.68;100.00;97000.78;5015333;28;20029;-61
2022/12/14 11:28:53;;;;;;;25.75;14.00;;;;;;;1.67;100.00;97006.28;5017168;28;20065;-54
2022/12/14 11:31:35;;;;;;;30.15;14.43;;;;;;;1.70;100.00;97009.41;5029433;28;20026;-61
2022/12/14 11:34:03;;;;;;;28.70;14.48;;;;;;;1.71;100.00;97016.38;5005842;28;20083;-62
2022/12/14 11:36:33;;;;;;;30.70;15.80;;;;;;;1.39;100.00;97008.88;5016280;28;20036;-63
2022/12/14 11:39:02;;;;;;;29.98;15.02;;;;;;;1.18;100.00;97007.88;5022326;28;20028;-63
2022/12/14 11:41:34;;;;;;;30.77;15.35;;;;;;;1.09;100.00;96999.13;5023930;28;20088;-63
2022/12/14 11:44:03;;;;;;;29.17;14.88;;;;;;;0.95;100.00;97005.34;5012178;28;20120;-64
2022/12/14 11:46:55;;;;;;;35.92;15.82;;;;;;;1.17;100.00;97000.88;5020184;28;20037;-62
2022/12/14 11:49:33;;;;;;;28.60;15.05;;;;;;;1.55;100.00;96995.31;5014703;28;20113;-62
2022/12/14 11:52:09;;;;;;;20.92;10.90;;;;;;;1.39;100.00;97007.06;5023792;28;20108;-62